Saxaren — SKHW — position and weather

sailwx.info

Track history (hours):
 
Tides and Currents Weather Stations Pressure Air Temp Water Temp Dewpoint Dewpoint Depression Visibility Wind Speed Wind Dir Waves Ship Positions

Saxaren

Last reported at 2016-Dec-10 23:34 UTC. Time now 2016-Dec-11 00:29 UTC.
Position N 59°20' E 018°05'.

Length 38 m; draft 1.8 m.

Type: Passenger vessel. MMSI: 265512110.

Date/timePositionNaut miles runAvg speedWind from/ knotsBaromVisibWave heightAir tempDewpointWater temp
2016-Dec-10 23:34N 59°20' E 018°05'0 0.0
2016-Dec-10 22:34N 59°20' E 018°05'0 0.0
2016-Dec-10 21:33N 59°20' E 018°05'0 0.0
2016-Dec-10 20:34N 59°20' E 018°05'0 0.0
2016-Dec-10 19:34N 59°20' E 018°05'0 0.0
2016-Dec-10 18:34N 59°20' E 018°05'5 5.3
2016-Dec-10 17:33N 59°21' E 018°15'5 1.9
2016-Dec-10 15:07N 59°24' E 018°21'4 0.5
2016-Dec-10 07:33N 59°22' E 018°16'6 6.0
2016-Dec-10 06:33N 59°20' E 018°05'0 0.0
2016-Dec-10 05:33N 59°20' E 018°05'0 0.0
2016-Dec-10 04:33N 59°20' E 018°05'0 0.0
2016-Dec-10 03:33N 59°20' E 018°05'0 0.0
2016-Dec-10 02:33N 59°20' E 018°05'0 0.0
2016-Dec-10 01:33N 59°20' E 018°05'0 0.0
2016-Dec-10 00:33N 59°20' E 018°05'0 0.0
2016-Dec-09 23:33N 59°20' E 018°05'0 0.0
2016-Dec-09 22:33N 59°20' E 018°05'0 0.0
2016-Dec-09 21:33N 59°20' E 018°05'0 0.0
2016-Dec-09 20:33N 59°20' E 018°05'0 0.0
2016-Dec-09 19:33N 59°20' E 018°05'0 0.0
2016-Dec-09 18:33N 59°20' E 018°05'0 0.0
2016-Dec-09 17:33N 59°20' E 018°05'0 0.0
2016-Dec-09 16:33N 59°20' E 018°05'0 0.0
2016-Dec-09 15:33N 59°20' E 018°05'0 0.0
2016-Dec-09 14:33N 59°20' E 018°05'0 0.0
2016-Dec-09 13:33N 59°20' E 018°05'0 0.0
2016-Dec-09 12:33N 59°20' E 018°05'0 0.0
2016-Dec-09 11:33N 59°20' E 018°05'0 0.0
2016-Dec-09 10:33N 59°20' E 018°05'0 0.0
2016-Dec-09 09:33N 59°20' E 018°05'0 0.0
2016-Dec-09 08:33N 59°20' E 018°05'0 0.0
2016-Dec-09 07:33N 59°20' E 018°05'3 3.3
2016-Dec-09 06:33N 59°20' E 018°11'8 6.4
2016-Dec-09 05:15N 59°23' E 018°26'2 3.6
2016-Dec-09 04:34N 59°24' E 018°21'0 0.0
2016-Dec-09 03:33N 59°24' E 018°21'0 0.0
2016-Dec-09 02:33N 59°24' E 018°21'0 0.0
2016-Dec-09 01:33N 59°24' E 018°21'0 0.0
2016-Dec-09 00:32N 59°24' E 018°21'0 0.0
2016-Dec-08 23:33N 59°24' E 018°21'1 0.2
2016-Dec-08 17:28N 59°23' E 018°21'9 9.7
2016-Dec-08 16:33N 59°20' E 018°05'0 0.2
2016-Dec-08 15:33N 59°20' E 018°05'0 0.0
2016-Dec-08 14:33N 59°20' E 018°05'0 0.0
2016-Dec-08 13:33N 59°20' E 018°05'0 0.0
2016-Dec-08 12:33N 59°20' E 018°05'0 0.0
2016-Dec-08 11:33N 59°20' E 018°05'0 0.2
2016-Dec-08 10:33N 59°20' E 018°05'0 0.0
2016-Dec-08 09:33N 59°20' E 018°05'5 5.2
2016-Dec-08 08:33N 59°22' E 018°15'1 0.0
2016-Dec-06 14:33N 59°21' E 018°15'5 5.3
2016-Dec-06 13:34N 59°20' E 018°04'0 0.0
2016-Dec-06 12:34N 59°20' E 018°04'0 0.0
2016-Dec-06 11:34N 59°20' E 018°04'0 0.0
2016-Dec-06 10:33N 59°20' E 018°04'0 0.0
2016-Dec-06 09:34N 59°20' E 018°04'0 0.0
2016-Dec-06 08:33N 59°20' E 018°04'0 0.0
2016-Dec-06 07:34N 59°20' E 018°04'0 0.0
2016-Dec-06 06:34N 59°20' E 018°04'0 0.0
2016-Dec-06 05:34N 59°20' E 018°04'0 0.0
2016-Dec-06 04:33N 59°20' E 018°04'0 0.0
2016-Dec-06 03:34N 59°20' E 018°04'0 0.0
2016-Dec-06 02:34N 59°20' E 018°04'0 0.0
2016-Dec-06 01:33N 59°20' E 018°04'0 0.0
2016-Dec-06 00:33N 59°20' E 018°04'0 0.0
2016-Dec-05 23:34N 59°20' E 018°04'0 0.0
2016-Dec-05 22:33N 59°20' E 018°04'0 0.0
2016-Dec-05 21:34N 59°20' E 018°04'0 0.0
2016-Dec-05 20:34N 59°20' E 018°04'0 0.0
2016-Dec-05 19:34N 59°20' E 018°04'0 0.0
2016-Dec-05 18:34N 59°20' E 018°04'0 0.0
2016-Dec-05 17:34N 59°20' E 018°04'0 0.0
2016-Dec-05 16:34N 59°20' E 018°04'0 0.0
2016-Dec-05 15:34N 59°20' E 018°04'0 0.0
2016-Dec-05 14:34N 59°20' E 018°04'0 0.0
2016-Dec-05 13:34N 59°20' E 018°04'0 0.0
2016-Dec-05 12:34N 59°20' E 018°04'0 0.0
2016-Dec-05 11:34N 59°20' E 018°04'0 0.0
2016-Dec-05 10:34N 59°20' E 018°04'0 0.0
2016-Dec-05 09:34N 59°20' E 018°04'5 5.5
2016-Dec-05 08:33N 59°22' E 018°15'0 0.0
2016-Dec-04 17:33N 59°22' E 018°15'6 5.6
2016-Dec-04 16:33N 59°20' E 018°04'4 4.0
2016-Dec-04 15:33N 59°20' E 018°12'6 1.0
2016-Dec-04 09:10N 59°24' E 018°21'4 7.4
2016-Dec-04 08:33N 59°21' E 018°14'5 5.3
2016-Dec-04 07:33N 59°20' E 018°05'0 0.0
2016-Dec-04 06:33N 59°20' E 018°05'0 0.0
2016-Dec-04 05:33N 59°20' E 018°05'0 0.0
2016-Dec-04 04:33N 59°20' E 018°05'0 0.0
2016-Dec-04 03:33N 59°20' E 018°05'0 0.0
2016-Dec-04 02:33N 59°20' E 018°05'0 0.0
2016-Dec-04 01:33N 59°20' E 018°05'0 0.0
2016-Dec-04 00:33N 59°20' E 018°05'0 0.0
2016-Dec-03 23:33N 59°20' E 018°05'0 0.0
2016-Dec-03 22:33N 59°20' E 018°05'0 0.0
2016-Dec-03 21:33N 59°20' E 018°05'0 0.0
2016-Dec-03 20:33N 59°20' E 018°05'0 0.0
2016-Dec-03 19:33N 59°20' E 018°05'0 0.0
2016-Dec-03 18:33N 59°20' E 018°05'5 5.2
2016-Dec-03 17:30N 59°21' E 018°15'0 0.0
2016-Dec-03 07:33N 59°21' E 018°14'5 5.2
2016-Dec-03 06:34N 59°20' E 018°04'0 0.0
2016-Dec-03 05:33N 59°20' E 018°04'0 0.0
2016-Dec-03 04:34N 59°20' E 018°04'0 0.0
2016-Dec-03 03:34N 59°20' E 018°04'0 0.0
2016-Dec-03 02:34N 59°20' E 018°04'0 0.0
2016-Dec-03 01:33N 59°20' E 018°04'0 0.0
2016-Dec-03 00:33N 59°20' E 018°04'0 0.0
2016-Dec-02 23:33N 59°20' E 018°04'0 0.0
2016-Dec-02 22:33N 59°20' E 018°04'0 0.0
2016-Dec-02 21:33N 59°20' E 018°04'0 0.0
2016-Dec-02 20:33N 59°20' E 018°04'0 0.0
2016-Dec-02 19:33N 59°20' E 018°04'0 0.0
2016-Dec-02 18:34N 59°20' E 018°04'0 0.0
2016-Dec-02 17:33N 59°20' E 018°04'0 0.0
2016-Dec-02 16:34N 59°20' E 018°04'0 0.0
2016-Dec-02 15:33N 59°20' E 018°04'0 0.0
2016-Dec-02 14:33N 59°20' E 018°04'0 0.0
2016-Dec-02 13:34N 59°20' E 018°04'0 0.0
2016-Dec-02 12:34N 59°20' E 018°04'0 0.0
2016-Dec-02 11:34N 59°20' E 018°04'0 0.0
2016-Dec-02 10:33N 59°20' E 018°04'0 0.0
2016-Dec-02 09:33N 59°20' E 018°04'0 0.0
2016-Dec-02 08:34N 59°20' E 018°04'0 0.0
2016-Dec-02 07:33N 59°20' E 018°04'3 3.0
2016-Dec-02 06:34N 59°19' E 018°10'8 7.4
2016-Dec-02 05:33N 59°24' E 018°22'0 0.3
2016-Dec-02 04:09N 59°24' E 018°21'0 0.0
2016-Dec-02 03:34N 59°24' E 018°21'0 0.0
2016-Dec-02 02:33N 59°24' E 018°21'0 0.0
2016-Dec-02 01:12N 59°24' E 018°21'0 0.0
2016-Dec-02 00:31N 59°24' E 018°21'1 0.1
2016-Dec-01 17:32N 59°23' E 018°21'9 9.2
2016-Dec-01 16:34N 59°19' E 018°05'0 0.3
2016-Dec-01 15:34N 59°20' E 018°05'0 0.0
2016-Dec-01 14:33N 59°20' E 018°05'0 0.0
2016-Dec-01 13:34N 59°20' E 018°05'0 0.0
2016-Dec-01 12:33N 59°20' E 018°05'0 0.0
2016-Dec-01 11:33N 59°20' E 018°05'0 0.0
2016-Dec-01 10:34N 59°20' E 018°05'0 0.0
2016-Dec-01 09:34N 59°20' E 018°05'6 5.5
2016-Dec-01 08:32N 59°22' E 018°15'  
Track history (hours):
 
Tides and Currents Weather Stations Pressure Air Temp Water Temp Dewpoint Dewpoint Depression Visibility Wind Speed Wind Dir Waves Ship Positions

Saxaren

Last reported at 2016-Dec-10 23:34 UTC. Time now 2016-Dec-11 00:29 UTC.
Position N 59°20' E 018°05'.

Length 38 m; draft 1.8 m.

Type: Passenger vessel. MMSI: 265512110.

Date/timePositionNaut miles runAvg speedWind from/ knotsBaromVisibWave heightAir tempDewpointWater temp
2016-Dec-10 23:34N 59°20' E 018°05'0 0.0
2016-Dec-10 22:34N 59°20' E 018°05'0 0.0
2016-Dec-10 21:33N 59°20' E 018°05'0 0.0
2016-Dec-10 20:34N 59°20' E 018°05'0 0.0
2016-Dec-10 19:34N 59°20' E 018°05'0 0.0
2016-Dec-10 18:34N 59°20' E 018°05'5 5.3
2016-Dec-10 17:33N 59°21' E 018°15'5 1.9
2016-Dec-10 15:07N 59°24' E 018°21'4 0.5
2016-Dec-10 07:33N 59°22' E 018°16'6 6.0
2016-Dec-10 06:33N 59°20' E 018°05'0 0.0
2016-Dec-10 05:33N 59°20' E 018°05'0 0.0
2016-Dec-10 04:33N 59°20' E 018°05'0 0.0
2016-Dec-10 03:33N 59°20' E 018°05'0 0.0
2016-Dec-10 02:33N 59°20' E 018°05'0 0.0
2016-Dec-10 01:33N 59°20' E 018°05'0 0.0
2016-Dec-10 00:33N 59°20' E 018°05'0 0.0
2016-Dec-09 23:33N 59°20' E 018°05'0 0.0
2016-Dec-09 22:33N 59°20' E 018°05'0 0.0
2016-Dec-09 21:33N 59°20' E 018°05'0 0.0
2016-Dec-09 20:33N 59°20' E 018°05'0 0.0
2016-Dec-09 19:33N 59°20' E 018°05'0 0.0
2016-Dec-09 18:33N 59°20' E 018°05'0 0.0
2016-Dec-09 17:33N 59°20' E 018°05'0 0.0
2016-Dec-09 16:33N 59°20' E 018°05'0 0.0
2016-Dec-09 15:33N 59°20' E 018°05'0 0.0
2016-Dec-09 14:33N 59°20' E 018°05'0 0.0
2016-Dec-09 13:33N 59°20' E 018°05'0 0.0
2016-Dec-09 12:33N 59°20' E 018°05'0 0.0
2016-Dec-09 11:33N 59°20' E 018°05'0 0.0
2016-Dec-09 10:33N 59°20' E 018°05'0 0.0
2016-Dec-09 09:33N 59°20' E 018°05'0 0.0
2016-Dec-09 08:33N 59°20' E 018°05'0 0.0
2016-Dec-09 07:33N 59°20' E 018°05'3 3.3
2016-Dec-09 06:33N 59°20' E 018°11'8 6.4
2016-Dec-09 05:15N 59°23' E 018°26'2 3.6
2016-Dec-09 04:34N 59°24' E 018°21'0 0.0
2016-Dec-09 03:33N 59°24' E 018°21'0 0.0
2016-Dec-09 02:33N 59°24' E 018°21'0 0.0
2016-Dec-09 01:33N 59°24' E 018°21'0 0.0
2016-Dec-09 00:32N 59°24' E 018°21'0 0.0
2016-Dec-08 23:33N 59°24' E 018°21'1 0.2
2016-Dec-08 17:28N 59°23' E 018°21'9 9.7
2016-Dec-08 16:33N 59°20' E 018°05'0 0.2
2016-Dec-08 15:33N 59°20' E 018°05'0 0.0
2016-Dec-08 14:33N 59°20' E 018°05'0 0.0
2016-Dec-08 13:33N 59°20' E 018°05'0 0.0
2016-Dec-08 12:33N 59°20' E 018°05'0 0.0
2016-Dec-08 11:33N 59°20' E 018°05'0 0.2
2016-Dec-08 10:33N 59°20' E 018°05'0 0.0
2016-Dec-08 09:33N 59°20' E 018°05'5 5.2
2016-Dec-08 08:33N 59°22' E 018°15'1 0.0
2016-Dec-06 14:33N 59°21' E 018°15'5 5.3
2016-Dec-06 13:34N 59°20' E 018°04'0 0.0
2016-Dec-06 12:34N 59°20' E 018°04'0 0.0
2016-Dec-06 11:34N 59°20' E 018°04'0 0.0
2016-Dec-06 10:33N 59°20' E 018°04'0 0.0
2016-Dec-06 09:34N 59°20' E 018°04'0 0.0
2016-Dec-06 08:33N 59°20' E 018°04'0 0.0
2016-Dec-06 07:34N 59°20' E 018°04'0 0.0
2016-Dec-06 06:34N 59°20' E 018°04'0 0.0
2016-Dec-06 05:34N 59°20' E 018°04'0 0.0
2016-Dec-06 04:33N 59°20' E 018°04'0 0.0
2016-Dec-06 03:34N 59°20' E 018°04'0 0.0
2016-Dec-06 02:34N 59°20' E 018°04'0 0.0
2016-Dec-06 01:33N 59°20' E 018°04'0 0.0
2016-Dec-06 00:33N 59°20' E 018°04'0 0.0
2016-Dec-05 23:34N 59°20' E 018°04'0 0.0
2016-Dec-05 22:33N 59°20' E 018°04'0 0.0
2016-Dec-05 21:34N 59°20' E 018°04'0 0.0
2016-Dec-05 20:34N 59°20' E 018°04'0 0.0
2016-Dec-05 19:34N 59°20' E 018°04'0 0.0
2016-Dec-05 18:34N 59°20' E 018°04'0 0.0
2016-Dec-05 17:34N 59°20' E 018°04'0 0.0
2016-Dec-05 16:34N 59°20' E 018°04'0 0.0
2016-Dec-05 15:34N 59°20' E 018°04'0 0.0
2016-Dec-05 14:34N 59°20' E 018°04'0 0.0
2016-Dec-05 13:34N 59°20' E 018°04'0 0.0
2016-Dec-05 12:34N 59°20' E 018°04'0 0.0
2016-Dec-05 11:34N 59°20' E 018°04'0 0.0
2016-Dec-05 10:34N 59°20' E 018°04'0 0.0
2016-Dec-05 09:34N 59°20' E 018°04'5 5.5
2016-Dec-05 08:33N 59°22' E 018°15'0 0.0
2016-Dec-04 17:33N 59°22' E 018°15'6 5.6
2016-Dec-04 16:33N 59°20' E 018°04'4 4.0
2016-Dec-04 15:33N 59°20' E 018°12'6 1.0
2016-Dec-04 09:10N 59°24' E 018°21'4 7.4
2016-Dec-04 08:33N 59°21' E 018°14'5 5.3
2016-Dec-04 07:33N 59°20' E 018°05'0 0.0
2016-Dec-04 06:33N 59°20' E 018°05'0 0.0
2016-Dec-04 05:33N 59°20' E 018°05'0 0.0
2016-Dec-04 04:33N 59°20' E 018°05'0 0.0
2016-Dec-04 03:33N 59°20' E 018°05'0 0.0
2016-Dec-04 02:33N 59°20' E 018°05'0 0.0
2016-Dec-04 01:33N 59°20' E 018°05'0 0.0
2016-Dec-04 00:33N 59°20' E 018°05'0 0.0
2016-Dec-03 23:33N 59°20' E 018°05'0 0.0
2016-Dec-03 22:33N 59°20' E 018°05'0 0.0
2016-Dec-03 21:33N 59°20' E 018°05'0 0.0
2016-Dec-03 20:33N 59°20' E 018°05'0 0.0
2016-Dec-03 19:33N 59°20' E 018°05'0 0.0
2016-Dec-03 18:33N 59°20' E 018°05'5 5.2
2016-Dec-03 17:30N 59°21' E 018°15'0 0.0
2016-Dec-03 07:33N 59°21' E 018°14'5 5.2
2016-Dec-03 06:34N 59°20' E 018°04'0 0.0
2016-Dec-03 05:33N 59°20' E 018°04'0 0.0
2016-Dec-03 04:34N 59°20' E 018°04'0 0.0
2016-Dec-03 03:34N 59°20' E 018°04'0 0.0
2016-Dec-03 02:34N 59°20' E 018°04'0 0.0
2016-Dec-03 01:33N 59°20' E 018°04'0 0.0
2016-Dec-03 00:33N 59°20' E 018°04'0 0.0
2016-Dec-02 23:33N 59°20' E 018°04'0 0.0
2016-Dec-02 22:33N 59°20' E 018°04'0 0.0
2016-Dec-02 21:33N 59°20' E 018°04'0 0.0
2016-Dec-02 20:33N 59°20' E 018°04'0 0.0
2016-Dec-02 19:33N 59°20' E 018°04'0 0.0
2016-Dec-02 18:34N 59°20' E 018°04'0 0.0
2016-Dec-02 17:33N 59°20' E 018°04'0 0.0
2016-Dec-02 16:34N 59°20' E 018°04'0 0.0
2016-Dec-02 15:33N 59°20' E 018°04'0 0.0
2016-Dec-02 14:33N 59°20' E 018°04'0 0.0
2016-Dec-02 13:34N 59°20' E 018°04'0 0.0
2016-Dec-02 12:34N 59°20' E 018°04'0 0.0
2016-Dec-02 11:34N 59°20' E 018°04'0 0.0
2016-Dec-02 10:33N 59°20' E 018°04'0 0.0
2016-Dec-02 09:33N 59°20' E 018°04'0 0.0
2016-Dec-02 08:34N 59°20' E 018°04'0 0.0
2016-Dec-02 07:33N 59°20' E 018°04'3 3.0
2016-Dec-02 06:34N 59°19' E 018°10'8 7.4
2016-Dec-02 05:33N 59°24' E 018°22'0 0.3
2016-Dec-02 04:09N 59°24' E 018°21'0 0.0
2016-Dec-02 03:34N 59°24' E 018°21'0 0.0
2016-Dec-02 02:33N 59°24' E 018°21'0 0.0
2016-Dec-02 01:12N 59°24' E 018°21'0 0.0
2016-Dec-02 00:31N 59°24' E 018°21'1 0.1
2016-Dec-01 17:32N 59°23' E 018°21'9 9.2
2016-Dec-01 16:34N 59°19' E 018°05'0 0.3
2016-Dec-01 15:34N 59°20' E 018°05'0 0.0
2016-Dec-01 14:33N 59°20' E 018°05'0 0.0
2016-Dec-01 13:34N 59°20' E 018°05'0 0.0
2016-Dec-01 12:33N 59°20' E 018°05'0 0.0
2016-Dec-01 11:33N 59°20' E 018°05'0 0.0
2016-Dec-01 10:34N 59°20' E 018°05'0 0.0
2016-Dec-01 09:34N 59°20' E 018°05'6 5.5
2016-Dec-01 08:32N 59°22' E 018°15'  

Dump ship's entire track history